Ann Arbor Township, Michigan
Current Conditions -  °F | °C
As of 7:53 PM on Saturday 25 Oct 2014 (Local Time) from KARB Reporting Station
Clear Clear  
Wind Chill: 58°   Ceiling: Unl
Heat Index: 58°   Visibility: 10mi
Dew Point: 29°   Wind: 12mph
Humidity: 33%   Direction: 300°WNW
Pressure: 29.8"   Gusts: NA
Location:  42.3281°N, 83.7037°W
Report Text: KARB 252353Z 30010KT 10SM CLR 14/M02 A2980 RMK AO2 SLP090 60000 T01441017 10206 20144 53014
Loading
Personal Weather Stations






























Interactive Weather Map New forecast layout! Learn more

10-Day Weather Forecast

Advertisements
Track Severe Weather on mobile